sensor_id;sensor_type;location;lat;lon;timestamp;pressure;altitude;pressure_sealevel;temperature;humidity
78613;BME280;67933;51.060;3.638;2023-03-03T00:01:05;102582.28;;;1.39;86.25
78613;BME280;67933;51.060;3.638;2023-03-03T00:03:31;102593.59;;;1.41;86.52
78613;BME280;67933;51.060;3.638;2023-03-03T00:05:57;102583.13;;;1.41;86.60
78613;BME280;67933;51.060;3.638;2023-03-03T00:08:23;102597.94;;;1.37;86.91
78613;BME280;67933;51.060;3.638;2023-03-03T00:10:49;102601.41;;;1.35;86.98
78613;BME280;67933;51.060;3.638;2023-03-03T00:13:17;102601.44;;;1.39;86.89
78613;BME280;67933;51.060;3.638;2023-03-03T00:15:43;102600.53;;;1.34;87.21
78613;BME280;67933;51.060;3.638;2023-03-03T00:18:29;102601.41;;;1.36;87.19
78613;BME280;67933;51.060;3.638;2023-03-03T00:20:59;102604.94;;;1.38;87.85
78613;BME280;67933;51.060;3.638;2023-03-03T00:23:38;102600.56;;;1.40;87.34
78613;BME280;67933;51.060;3.638;2023-03-03T00:26:24;102613.66;;;1.43;87.70
78613;BME280;67933;51.060;3.638;2023-03-03T00:28:53;102604.06;;;1.38;87.67
78613;BME280;67933;51.060;3.638;2023-03-03T00:31:39;102606.66;;;1.36;87.88
78613;BME280;67933;51.060;3.638;2023-03-03T00:34:23;102609.34;;;1.45;87.91
78613;BME280;67933;51.060;3.638;2023-03-03T00:36:55;102603.19;;;1.39;87.67
78613;BME280;67933;51.060;3.638;2023-03-03T00:39:29;102613.59;;;1.31;88.12
78613;BME280;67933;51.060;3.638;2023-03-03T00:41:56;102605.72;;;1.33;88.49
78613;BME280;67933;51.060;3.638;2023-03-03T00:44:47;102603.22;;;1.43;88.59
78613;BME280;67933;51.060;3.638;2023-03-03T00:47:34;102610.22;;;1.46;88.44
78613;BME280;67933;51.060;3.638;2023-03-03T00:52:33;102603.22;;;1.45;88.86
78613;BME280;67933;51.060;3.638;2023-03-03T00:54:59;102603.25;;;1.46;89.03
78613;BME280;67933;51.060;3.638;2023-03-03T00:57:24;102595.41;;;1.46;89.26
78613;BME280;67933;51.060;3.638;2023-03-03T00:59:50;102604.94;;;1.41;89.66
78613;BME280;67933;51.060;3.638;2023-03-03T01:02:15;102611.91;;;1.42;89.25
78613;BME280;67933;51.060;3.638;2023-03-03T01:04:41;102606.66;;;1.36;89.41
78613;BME280;67933;51.060;3.638;2023-03-03T01:07:08;102618.88;;;1.42;89.72
78613;BME280;67933;51.060;3.638;2023-03-03T01:09:33;102617.13;;;1.38;89.56
78613;BME280;67933;51.060;3.638;2023-03-03T01:11:59;102615.31;;;1.32;89.75
78613;BME280;67933;51.060;3.638;2023-03-03T01:14:25;102609.22;;;1.30;90.08
78613;BME280;67933;51.060;3.638;2023-03-03T01:16:51;102611.03;;;1.39;90.49
78613;BME280;67933;51.060;3.638;2023-03-03T01:19:16;102617.06;;;1.33;89.97
78613;BME280;67933;51.060;3.638;2023-03-03T01:21:44;102631.00;;;1.31;89.51
78613;BME280;67933;51.060;3.638;2023-03-03T01:24:10;102618.75;;;1.27;90.40
78613;BME280;67933;51.060;3.638;2023-03-03T01:26:35;102609.97;;;1.19;90.44
78613;BME280;67933;51.060;3.638;2023-03-03T01:29:01;102601.16;;;1.06;90.40
78613;BME280;67933;51.060;3.638;2023-03-03T01:31:26;102612.53;;;1.14;90.57
78613;BME280;67933;51.060;3.638;2023-03-03T01:33:51;102616.91;;;1.15;90.57
78613;BME280;67933;51.060;3.638;2023-03-03T01:36:25;102626.50;;;1.14;91.02
78613;BME280;67933;51.060;3.638;2023-03-03T01:38:51;102615.94;;;1.05;90.29
78613;BME280;67933;51.060;3.638;2023-03-03T01:41:16;102625.44;;;0.97;90.32
78613;BME280;67933;51.060;3.638;2023-03-03T01:43:44;102622.88;;;1.00;91.45
78613;BME280;67933;51.060;3.638;2023-03-03T01:46:34;102618.56;;;1.08;90.89
78613;BME280;67933;51.060;3.638;2023-03-03T01:49:13;102627.31;;;1.12;90.92
78613;BME280;67933;51.060;3.638;2023-03-03T01:51:59;102623.81;;;1.10;91.65
78613;BME280;67933;51.060;3.638;2023-03-03T01:54:40;102621.16;;;1.04;91.12
78613;BME280;67933;51.060;3.638;2023-03-03T01:57:14;102621.97;;;1.01;91.65
78613;BME280;67933;51.060;3.638;2023-03-03T01:59:47;102607.97;;;0.93;91.36
78613;BME280;67933;51.060;3.638;2023-03-03T02:02:14;102608.03;;;0.98;91.64
78613;BME280;67933;51.060;3.638;2023-03-03T02:04:39;102604.56;;;0.99;91.76
78613;BME280;67933;51.060;3.638;2023-03-03T02:07:09;102604.56;;;1.02;91.73
78613;BME280;67933;51.060;3.638;2023-03-03T02:12:37;102616.75;;;1.00;91.71
78613;BME280;67933;51.060;3.638;2023-03-03T02:15:35;102619.38;;;1.00;92.13
78613;BME280;67933;51.060;3.638;2023-03-03T02:18:06;102622.94;;;1.06;92.04
78613;BME280;67933;51.060;3.638;2023-03-03T02:25:47;102609.75;;;0.96;91.61
78613;BME280;67933;51.060;3.638;2023-03-03T02:28:16;102614.91;;;0.90;91.46
78613;BME280;67933;51.060;3.638;2023-03-03T02:30:42;102615.72;;;0.84;91.87
78613;BME280;67933;51.060;3.638;2023-03-03T02:33:08;102619.19;;;0.83;91.64
78613;BME280;67933;51.060;3.638;2023-03-03T02:35:37;102617.44;;;0.82;91.75
78613;BME280;67933;51.060;3.638;2023-03-03T02:38:14;102625.25;;;0.81;91.34
78613;BME280;67933;51.060;3.638;2023-03-03T02:40:48;102614.63;;;0.65;90.96
78613;BME280;67933;51.060;3.638;2023-03-03T02:43:18;102624.09;;;0.56;91.31
78613;BME280;67933;51.060;3.638;2023-03-03T02:45:46;102628.34;;;0.46;91.37
78613;BME280;67933;51.060;3.638;2023-03-03T02:48:12;102621.22;;;0.34;91.30
78613;BME280;67933;51.060;3.638;2023-03-03T02:50:37;102621.19;;;0.33;91.80
78613;BME280;67933;51.060;3.638;2023-03-03T02:53:03;102622.13;;;0.36;91.85
78613;BME280;67933;51.060;3.638;2023-03-03T02:55:28;102622.16;;;0.39;92.15
78613;BME280;67933;51.060;3.638;2023-03-03T02:57:56;102623.00;;;0.37;91.81
78613;BME280;67933;51.060;3.638;2023-03-03T03:00:21;102625.56;;;0.34;91.72
78613;BME280;67933;51.060;3.638;2023-03-03T03:02:48;102625.50;;;0.28;91.37
78613;BME280;67933;51.060;3.638;2023-03-03T03:05:13;102631.53;;;0.25;91.71
78613;BME280;67933;51.060;3.638;2023-03-03T03:07:39;102620.22;;;0.25;91.63
78613;BME280;67933;51.060;3.638;2023-03-03T03:10:05;102626.28;;;0.24;91.41
78613;BME280;67933;51.060;3.638;2023-03-03T03:12:30;102622.81;;;0.25;91.86
78613;BME280;67933;51.060;3.638;2023-03-03T03:14:55;102626.25;;;0.21;91.31
78613;BME280;67933;51.060;3.638;2023-03-03T03:17:21;102628.03;;;0.22;91.40
78613;BME280;67933;51.060;3.638;2023-03-03T03:19:46;102627.97;;;0.19;91.55
78613;BME280;67933;51.060;3.638;2023-03-03T03:22:12;102624.44;;;0.17;91.90
78613;BME280;67933;51.060;3.638;2023-03-03T03:24:37;102619.34;;;0.23;91.79
78613;BME280;67933;51.060;3.638;2023-03-03T03:27:03;102626.31;;;0.25;91.34
78613;BME280;67933;51.060;3.638;2023-03-03T03:29:28;102632.38;;;0.21;91.07
78613;BME280;67933;51.060;3.638;2023-03-03T03:31:54;102634.03;;;0.18;91.36
78613;BME280;67933;51.060;3.638;2023-03-03T03:34:19;102631.50;;;0.22;91.35
78613;BME280;67933;51.060;3.638;2023-03-03T03:36:44;102628.06;;;0.26;91.24
78613;BME280;67933;51.060;3.638;2023-03-03T03:39:11;102622.84;;;0.26;91.23
78613;BME280;67933;51.060;3.638;2023-03-03T03:41:36;102626.25;;;0.21;90.92
78613;BME280;67933;51.060;3.638;2023-03-03T03:44:02;102626.19;;;0.16;91.20
78613;BME280;67933;51.060;3.638;2023-03-03T03:46:27;102618.31;;;0.12;91.51
78613;BME280;67933;51.060;3.638;2023-03-03T03:48:53;102623.47;;;0.07;91.13
78613;BME280;67933;51.060;3.638;2023-03-03T03:51:18;102635.63;;;0.08;90.84
78613;BME280;67933;51.060;3.638;2023-03-03T03:53:43;102639.13;;;0.07;91.15
78613;BME280;67933;51.060;3.638;2023-03-03T03:56:09;102629.53;;;0.06;91.55
78613;BME280;67933;51.060;3.638;2023-03-03T03:58:35;102630.31;;;0.00;90.94
78613;BME280;67933;51.060;3.638;2023-03-03T04:01:06;102632.94;;;0.02;91.32
78613;BME280;67933;51.060;3.638;2023-03-03T04:03:32;102624.97;;;-0.10;91.45
78613;BME280;67933;51.060;3.638;2023-03-03T04:05:57;102636.22;;;-0.13;91.04
78613;BME280;67933;51.060;3.638;2023-03-03T04:08:23;102634.28;;;-0.26;91.17
78613;BME280;67933;51.060;3.638;2023-03-03T04:10:48;102633.31;;;-0.32;90.93
78613;BME280;67933;51.060;3.638;2023-03-03T04:13:13;102638.47;;;-0.35;91.56
78613;BME280;67933;51.060;3.638;2023-03-03T04:15:39;102641.75;;;-0.46;91.59
78613;BME280;67933;51.060;3.638;2023-03-03T04:18:05;102642.63;;;-0.48;91.72
78613;BME280;67933;51.060;3.638;2023-03-03T04:20:30;102643.38;;;-0.54;91.99
78613;BME280;67933;51.060;3.638;2023-03-03T04:22:56;102638.16;;;-0.54;91.58
78613;BME280;67933;51.060;3.638;2023-03-03T04:25:22;102639.97;;;-0.50;92.12
78613;BME280;67933;51.060;3.638;2023-03-03T04:27:48;102636.72;;;-0.36;92.21
78613;BME280;67933;51.060;3.638;2023-03-03T04:30:15;102646.44;;;-0.26;92.33
78613;BME280;67933;51.060;3.638;2023-03-03T04:32:41;102644.69;;;-0.27;91.94
78613;BME280;67933;51.060;3.638;2023-03-03T04:35:07;102632.56;;;-0.25;92.10
78613;BME280;67933;51.060;3.638;2023-03-03T04:37:33;102630.09;;;-0.16;92.01
78613;BME280;67933;51.060;3.638;2023-03-03T04:39:58;102633.53;;;-0.17;92.05
78613;BME280;67933;51.060;3.638;2023-03-03T04:42:24;102637.81;;;-0.21;91.71
78613;BME280;67933;51.060;3.638;2023-03-03T04:44:49;102635.16;;;-0.25;92.05
78613;BME280;67933;51.060;3.638;2023-03-03T04:47:15;102635.00;;;-0.34;91.49
78613;BME280;67933;51.060;3.638;2023-03-03T04:49:40;102645.38;;;-0.39;91.86
78613;BME280;67933;51.060;3.638;2023-03-03T04:52:05;102636.69;;;-0.40;92.17
78613;BME280;67933;51.060;3.638;2023-03-03T04:54:31;102640.03;;;-0.47;91.80
78613;BME280;67933;51.060;3.638;2023-03-03T04:56:56;102646.91;;;-0.50;91.88
78613;BME280;67933;51.060;3.638;2023-03-03T04:59:22;102637.41;;;-0.48;92.28
78613;BME280;67933;51.060;3.638;2023-03-03T05:01:49;102641.91;;;-0.40;92.51
78613;BME280;67933;51.060;3.638;2023-03-03T05:04:15;102640.97;;;-0.42;92.15
78613;BME280;67933;51.060;3.638;2023-03-03T05:06:40;102642.88;;;-0.30;92.44
78613;BME280;67933;51.060;3.638;2023-03-03T05:09:06;102645.63;;;-0.22;92.58
78613;BME280;67933;51.060;3.638;2023-03-03T05:11:31;102655.34;;;-0.12;92.54
78613;BME280;67933;51.060;3.638;2023-03-03T05:13:57;102637.16;;;-0.09;92.20
78613;BME280;67933;51.060;3.638;2023-03-03T05:16:22;102639.00;;;-0.02;92.91
78613;BME280;67933;51.060;3.638;2023-03-03T05:18:48;102644.22;;;0.01;92.44
78613;BME280;67933;51.060;3.638;2023-03-03T05:21:13;102640.84;;;0.07;92.37
78613;BME280;67933;51.060;3.638;2023-03-03T05:23:38;102640.09;;;0.14;92.34
78613;BME280;67933;51.060;3.638;2023-03-03T05:26:04;102635.69;;;0.11;92.06
78613;BME280;67933;51.060;3.638;2023-03-03T05:28:29;102638.22;;;0.05;92.04
78613;BME280;67933;51.060;3.638;2023-03-03T05:30:55;102634.69;;;0.02;92.37
78613;BME280;67933;51.060;3.638;2023-03-03T05:33:21;102648.69;;;0.08;92.34
78613;BME280;67933;51.060;3.638;2023-03-03T05:35:46;102647.81;;;0.06;92.45
78613;BME280;67933;51.060;3.638;2023-03-03T05:38:11;102649.56;;;0.07;92.41
78613;BME280;67933;51.060;3.638;2023-03-03T05:40:37;102650.47;;;0.11;92.25
78613;BME280;67933;51.060;3.638;2023-03-03T05:43:03;102662.69;;;0.13;92.59
78613;BME280;67933;51.060;3.638;2023-03-03T05:45:29;102669.59;;;0.10;92.05
78613;BME280;67933;51.060;3.638;2023-03-03T05:47:54;102652.09;;;0.03;91.75
78613;BME280;67933;51.060;3.638;2023-03-03T05:50:21;102670.34;;;0.03;92.11
78613;BME280;67933;51.060;3.638;2023-03-03T05:52:48;102674.75;;;0.05;92.53
78613;BME280;67933;51.060;3.638;2023-03-03T05:55:14;102675.56;;;0.03;91.95
78613;BME280;67933;51.060;3.638;2023-03-03T05:57:39;102672.00;;;-0.04;92.53
78613;BME280;67933;51.060;3.638;2023-03-03T06:00:05;102672.91;;;-0.02;92.44
78613;BME280;67933;51.060;3.638;2023-03-03T06:02:31;102669.38;;;-0.04;92.74
78613;BME280;67933;51.060;3.638;2023-03-03T06:04:57;102679.03;;;0.00;92.63
78613;BME280;67933;51.060;3.638;2023-03-03T06:07:23;102684.19;;;-0.03;92.34
78613;BME280;67933;51.060;3.638;2023-03-03T06:09:49;102685.94;;;-0.02;92.42
78613;BME280;67933;51.060;3.638;2023-03-03T06:12:14;102683.28;;;-0.05;92.51
78613;BME280;67933;51.060;3.638;2023-03-03T06:14:40;102679.88;;;-0.01;92.49
78613;BME280;67933;51.060;3.638;2023-03-03T06:17:05;102686.19;;;0.13;93.39
78613;BME280;67933;51.060;3.638;2023-03-03T06:19:31;102672.34;;;0.20;92.87
78613;BME280;67933;51.060;3.638;2023-03-03T06:21:56;102686.41;;;0.31;92.85
78613;BME280;67933;51.060;3.638;2023-03-03T06:24:22;102675.13;;;0.31;92.67
78613;BME280;67933;51.060;3.638;2023-03-03T06:26:50;102689.13;;;0.39;92.55
78613;BME280;67933;51.060;3.638;2023-03-03T06:29:15;102690.91;;;0.38;92.59
78613;BME280;67933;51.060;3.638;2023-03-03T06:31:41;102692.66;;;0.41;92.27
78613;BME280;67933;51.060;3.638;2023-03-03T06:34:07;102699.69;;;0.47;92.44
78613;BME280;67933;51.060;3.638;2023-03-03T06:36:32;102700.56;;;0.46;92.24
78613;BME280;67933;51.060;3.638;2023-03-03T06:38:58;102704.06;;;0.46;92.24
78613;BME280;67933;51.060;3.638;2023-03-03T06:41:23;102710.22;;;0.53;92.15
78613;BME280;67933;51.060;3.638;2023-03-03T06:43:48;102721.66;;;0.61;92.19
78613;BME280;67933;51.060;3.638;2023-03-03T06:46:14;102723.41;;;0.62;92.25
78613;BME280;67933;51.060;3.638;2023-03-03T06:48:39;102719.94;;;0.61;91.73
78613;BME280;67933;51.060;3.638;2023-03-03T06:51:28;102725.16;;;0.61;91.56
78613;BME280;67933;51.060;3.638;2023-03-03T06:53:56;102731.34;;;0.71;91.31
78613;BME280;67933;51.060;3.638;2023-03-03T06:56:25;102731.41;;;0.75;91.52
78613;BME280;67933;51.060;3.638;2023-03-03T06:59:00;102731.50;;;0.82;91.05
78613;BME280;67933;51.060;3.638;2023-03-03T07:01:30;102731.59;;;0.89;90.71
78613;BME280;67933;51.060;3.638;2023-03-03T07:03:57;102743.72;;;0.84;90.13
78613;BME280;67933;51.060;3.638;2023-03-03T07:06:25;102748.88;;;0.80;90.13
78613;BME280;67933;51.060;3.638;2023-03-03T07:08:53;102747.13;;;0.77;90.28
78613;BME280;67933;51.060;3.638;2023-03-03T07:11:21;102753.09;;;0.70;89.89
78613;BME280;67933;51.060;3.638;2023-03-03T07:13:49;102761.75;;;0.66;90.10
78613;BME280;67933;51.060;3.638;2023-03-03T07:16:17;102764.50;;;0.75;90.58
78613;BME280;67933;51.060;3.638;2023-03-03T07:23:45;102768.94;;;0.82;90.21
78613;BME280;67933;51.060;3.638;2023-03-03T07:26:12;102768.81;;;0.73;90.19
78613;BME280;67933;51.060;3.638;2023-03-03T07:28:43;102774.09;;;0.76;90.73
78613;BME280;67933;51.060;3.638;2023-03-03T07:31:38;102770.63;;;0.78;90.04
78613;BME280;67933;51.060;3.638;2023-03-03T07:34:22;102773.28;;;0.82;90.44
78613;BME280;67933;51.060;3.638;2023-03-03T07:36:51;102769.81;;;0.81;90.11
78613;BME280;67933;51.060;3.638;2023-03-03T07:39:30;102782.91;;;0.84;90.29
78613;BME280;67933;51.060;3.638;2023-03-03T07:42:19;102782.09;;;0.90;90.23
78613;BME280;67933;51.060;3.638;2023-03-03T07:44:45;102783.91;;;0.95;90.05
78613;BME280;67933;51.060;3.638;2023-03-03T07:47:27;102775.19;;;0.92;90.31
78613;BME280;67933;51.060;3.638;2023-03-03T07:50:00;102789.19;;;0.98;89.94
78613;BME280;67933;51.060;3.638;2023-03-03T07:52:34;102797.03;;;0.98;89.90
78613;BME280;67933;51.060;3.638;2023-03-03T07:57:50;102805.66;;;0.94;90.05
78613;BME280;67933;51.060;3.638;2023-03-03T08:02:55;102808.50;;;1.08;90.18
78613;BME280;67933;51.060;3.638;2023-03-03T08:05:29;102801.56;;;1.13;90.17
78613;BME280;67933;51.060;3.638;2023-03-03T08:18:36;102816.69;;;1.40;89.42
78613;BME280;67933;51.060;3.638;2023-03-03T08:21:29;102810.69;;;1.45;89.07
78613;BME280;67933;51.060;3.638;2023-03-03T08:23:56;102812.47;;;1.51;89.31
78613;BME280;67933;51.060;3.638;2023-03-03T08:26:23;102814.22;;;1.50;89.02
78613;BME280;67933;51.060;3.638;2023-03-03T08:28:49;102817.84;;;1.63;88.57
78613;BME280;67933;51.060;3.638;2023-03-03T08:31:14;102826.59;;;1.67;88.77
78613;BME280;67933;51.060;3.638;2023-03-03T08:33:42;102819.75;;;1.79;88.96
78613;BME280;67933;51.060;3.638;2023-03-03T08:36:07;102818.00;;;1.78;88.24
78613;BME280;67933;51.060;3.638;2023-03-03T08:38:33;102821.56;;;1.85;87.83
78613;BME280;67933;51.060;3.638;2023-03-03T08:40:59;102834.69;;;1.89;88.12
78613;BME280;67933;51.060;3.638;2023-03-03T08:43:24;102827.75;;;1.91;87.48
78613;BME280;67933;51.060;3.638;2023-03-03T08:45:51;102820.81;;;1.97;88.24
78613;BME280;67933;51.060;3.638;2023-03-03T08:48:18;102826.03;;;1.93;87.40
78613;BME280;67933;51.060;3.638;2023-03-03T08:50:45;102825.97;;;1.90;87.58
78613;BME280;67933;51.060;3.638;2023-03-03T08:53:11;102838.22;;;1.91;87.35
78613;BME280;67933;51.060;3.638;2023-03-03T08:55:38;102836.50;;;1.93;87.22
78613;BME280;67933;51.060;3.638;2023-03-03T08:58:03;102847.81;;;1.94;88.08
78613;BME280;67933;51.060;3.638;2023-03-03T09:00:29;102841.78;;;2.03;87.32
78613;BME280;67933;51.060;3.638;2023-03-03T09:02:54;102847.13;;;2.09;87.14
78613;BME280;67933;51.060;3.638;2023-03-03T09:05:21;102847.13;;;2.12;86.67
78613;BME280;67933;51.060;3.638;2023-03-03T09:07:47;102851.59;;;2.25;87.15
78613;BME280;67933;51.060;3.638;2023-03-03T09:10:18;102855.97;;;2.26;86.94
78613;BME280;67933;51.060;3.638;2023-03-03T09:12:45;102850.81;;;2.32;86.35
78613;BME280;67933;51.060;3.638;2023-03-03T09:17:40;102860.41;;;2.33;86.48
78613;BME280;67933;51.060;3.638;2023-03-03T09:20:31;102853.44;;;2.35;86.10
78613;BME280;67933;51.060;3.638;2023-03-03T09:22:58;102864.78;;;2.34;86.25
78613;BME280;67933;51.060;3.638;2023-03-03T09:25:34;102866.56;;;2.41;86.32
78613;BME280;67933;51.060;3.638;2023-03-03T09:28:01;102860.50;;;2.44;85.29
78613;BME280;67933;51.060;3.638;2023-03-03T09:30:36;102862.28;;;2.46;85.88
78613;BME280;67933;51.060;3.638;2023-03-03T09:35:45;102858.03;;;2.65;85.17
78613;BME280;67933;51.060;3.638;2023-03-03T09:38:32;102862.44;;;2.69;84.82
78613;BME280;67933;51.060;3.638;2023-03-03T09:49:34;102870.47;;;2.95;83.42
78613;BME280;67933;51.060;3.638;2023-03-03T09:54:57;102869.63;;;2.99;83.30
78613;BME280;67933;51.060;3.638;2023-03-03T10:00:37;102873.31;;;3.36;82.80
78613;BME280;67933;51.060;3.638;2023-03-03T10:09:30;102880.50;;;3.81;80.58
78613;BME280;67933;51.060;3.638;2023-03-03T10:17:17;102879.59;;;3.73;81.23
78613;BME280;67933;51.060;3.638;2023-03-03T10:22:51;102886.63;;;3.83;80.11
78613;BME280;67933;51.060;3.638;2023-03-03T10:25:44;102877.03;;;3.93;79.92
78613;BME280;67933;51.060;3.638;2023-03-03T10:28:32;102882.28;;;3.85;80.22
78613;BME280;67933;51.060;3.638;2023-03-03T10:31:34;102878.78;;;3.86;80.73
78613;BME280;67933;51.060;3.638;2023-03-03T10:44:47;102877.97;;;4.10;78.56
78613;BME280;67933;51.060;3.638;2023-03-03T10:55:12;102884.09;;;4.22;77.75
78613;BME280;67933;51.060;3.638;2023-03-03T11:01:13;102878.84;;;4.30;77.16
78613;BME280;67933;51.060;3.638;2023-03-03T11:06:57;102877.97;;;4.45;76.27
78613;BME280;67933;51.060;3.638;2023-03-03T11:09:43;102878.00;;;4.64;77.44
78613;BME280;67933;51.060;3.638;2023-03-03T11:12:29;102871.84;;;4.61;77.60
78613;BME280;67933;51.060;3.638;2023-03-03T11:21:08;102891.13;;;4.72;76.76
78613;BME280;67933;51.060;3.638;2023-03-03T11:30:11;102880.56;;;5.09;75.63
78613;BME280;67933;51.060;3.638;2023-03-03T11:32:48;102884.88;;;5.20;74.82
78613;BME280;67933;51.060;3.638;2023-03-03T11:37:51;102885.75;;;5.31;73.42
78613;BME280;67933;51.060;3.638;2023-03-03T11:43:14;102867.84;;;6.08;72.22
78613;BME280;67933;51.060;3.638;2023-03-03T11:45:47;102872.78;;;6.50;71.94
78613;BME280;67933;51.060;3.638;2023-03-03T11:48:21;102860.66;;;7.21;68.58
78613;BME280;67933;51.060;3.638;2023-03-03T11:56:40;102851.75;;;7.30;67.77
78613;BME280;67933;51.060;3.638;2023-03-03T12:04:36;102850.50;;;6.85;68.10
78613;BME280;67933;51.060;3.638;2023-03-03T12:12:50;102855.13;;;6.58;69.17
78613;BME280;67933;51.060;3.638;2023-03-03T12:15:37;102854.31;;;6.52;68.55
78613;BME280;67933;51.060;3.638;2023-03-03T12:18:12;102854.94;;;6.81;68.79
78613;BME280;67933;51.060;3.638;2023-03-03T12:26:01;102835.41;;;6.99;68.75
78613;BME280;67933;51.060;3.638;2023-03-03T12:28:44;102828.25;;;7.10;66.72
78613;BME280;67933;51.060;3.638;2023-03-03T12:34:14;102824.50;;;7.29;64.86
78613;BME280;67933;51.060;3.638;2023-03-03T12:39:47;102819.81;;;6.79;67.46
78613;BME280;67933;51.060;3.638;2023-03-03T12:45:27;102828.25;;;7.79;64.72
78613;BME280;67933;51.060;3.638;2023-03-03T12:56:03;102805.84;;;11.22;53.69
78613;BME280;67933;51.060;3.638;2023-03-03T12:58:38;102818.47;;;10.49;54.27
78613;BME280;67933;51.060;3.638;2023-03-03T13:01:24;102809.88;;;10.02;56.36
78613;BME280;67933;51.060;3.638;2023-03-03T13:09:27;102806.41;;;11.02;52.43
78613;BME280;67933;51.060;3.638;2023-03-03T13:14:34;102797.25;;;11.13;53.38
78613;BME280;67933;51.060;3.638;2023-03-03T13:17:22;102799.69;;;11.80;51.19
78613;BME280;67933;51.060;3.638;2023-03-03T13:19:59;102792.09;;;12.73;48.15
78613;BME280;67933;51.060;3.638;2023-03-03T13:22:42;102793.41;;;12.61;48.50
78613;BME280;67933;51.060;3.638;2023-03-03T13:28:06;102783.59;;;13.58;45.87
78613;BME280;67933;51.060;3.638;2023-03-03T13:30:39;102788.50;;;12.99;46.91
78613;BME280;67933;51.060;3.638;2023-03-03T13:33:14;102791.88;;;12.02;47.83
78613;BME280;67933;51.060;3.638;2023-03-03T13:38:35;102796.22;;;11.47;49.97
78613;BME280;67933;51.060;3.638;2023-03-03T13:41:06;102789.84;;;12.10;47.88
78613;BME280;67933;51.060;3.638;2023-03-03T13:43:57;102786.56;;;12.79;45.79
78613;BME280;67933;51.060;3.638;2023-03-03T13:46:35;102784.25;;;13.41;45.37
78613;BME280;67933;51.060;3.638;2023-03-03T13:51:54;102782.53;;;12.43;46.34
78613;BME280;67933;51.060;3.638;2023-03-03T13:57:06;102779.34;;;10.89;49.14
78613;BME280;67933;51.060;3.638;2023-03-03T14:02:27;102776.63;;;11.80;47.49
78613;BME280;67933;51.060;3.638;2023-03-03T14:05:05;102785.31;;;12.13;45.91
78613;BME280;67933;51.060;3.638;2023-03-03T14:08:01;102775.91;;;11.75;46.97
78613;BME280;67933;51.060;3.638;2023-03-03T14:10:36;102776.25;;;12.19;47.46
78613;BME280;67933;51.060;3.638;2023-03-03T14:13:08;102772.63;;;12.71;46.79
78613;BME280;67933;51.060;3.638;2023-03-03T14:18:38;102782.16;;;9.40;53.55
78613;BME280;67933;51.060;3.638;2023-03-03T14:21:13;102781.34;;;10.81;51.13
78613;BME280;67933;51.060;3.638;2023-03-03T14:23:50;102777.59;;;9.46;53.69
78613;BME280;67933;51.060;3.638;2023-03-03T14:26:18;102783.13;;;8.45;57.26
78613;BME280;67933;51.060;3.638;2023-03-03T14:28:46;102785.16;;;10.00;51.80
78613;BME280;67933;51.060;3.638;2023-03-03T14:33:44;102770.72;;;11.41;48.22
78613;BME280;67933;51.060;3.638;2023-03-03T14:36:12;102764.44;;;10.53;51.16
78613;BME280;67933;51.060;3.638;2023-03-03T14:38:44;102766.44;;;9.32;54.79
78613;BME280;67933;51.060;3.638;2023-03-03T14:43:36;102776.28;;;8.35;57.66
78613;BME280;67933;51.060;3.638;2023-03-03T14:48:54;102762.50;;;9.10;55.99
78613;BME280;67933;51.060;3.638;2023-03-03T14:51:45;102756.13;;;10.65;51.52
78613;BME280;67933;51.060;3.638;2023-03-03T14:54:29;102760.16;;;11.68;48.93
78613;BME280;67933;51.060;3.638;2023-03-03T14:59:24;102755.97;;;9.64;53.12
78613;BME280;67933;51.060;3.638;2023-03-03T15:04:42;102759.28;;;8.48;56.55
78613;BME280;67933;51.060;3.638;2023-03-03T15:07:25;102766.25;;;8.00;59.51
78613;BME280;67933;51.060;3.638;2023-03-03T15:09:52;102772.56;;;7.91;59.11
78613;BME280;67933;51.060;3.638;2023-03-03T15:12:34;102764.31;;;8.11;59.15
78613;BME280;67933;51.060;3.638;2023-03-03T15:25:17;102742.44;;;7.45;60.60
78613;BME280;67933;51.060;3.638;2023-03-03T15:30:38;102753.75;;;6.88;61.88
78613;BME280;67933;51.060;3.638;2023-03-03T15:36:30;102768.72;;;6.85;64.24
78613;BME280;67933;51.060;3.638;2023-03-03T15:41:50;102762.16;;;7.19;62.64
78613;BME280;67933;51.060;3.638;2023-03-03T15:47:03;102754.97;;;7.29;60.93
78613;BME280;67933;51.060;3.638;2023-03-03T15:49:53;102747.81;;;7.37;61.55
78613;BME280;67933;51.060;3.638;2023-03-03T15:52:31;102757.78;;;7.18;61.66
78613;BME280;67933;51.060;3.638;2023-03-03T15:57:46;102749.38;;;6.86;62.03
78613;BME280;67933;51.060;3.638;2023-03-03T16:00:35;102755.69;;;6.73;62.49
78613;BME280;67933;51.060;3.638;2023-03-03T16:03:30;102750.38;;;6.76;63.32
78613;BME280;67933;51.060;3.638;2023-03-03T16:06:00;102744.09;;;6.89;62.69
78613;BME280;67933;51.060;3.638;2023-03-03T16:08:59;102741.38;;;6.92;62.26
78613;BME280;67933;51.060;3.638;2023-03-03T16:17:31;102746.53;;;7.04;62.23
78613;BME280;67933;51.060;3.638;2023-03-03T16:33:21;102744.81;;;6.97;64.11
78613;BME280;67933;51.060;3.638;2023-03-03T16:35:57;102737.84;;;6.93;63.14
78613;BME280;67933;51.060;3.638;2023-03-03T16:38:37;102746.72;;;6.89;63.66
78613;BME280;67933;51.060;3.638;2023-03-03T16:41:09;102752.09;;;6.80;64.58
78613;BME280;67933;51.060;3.638;2023-03-03T16:46:21;102755.06;;;6.48;65.59
78613;BME280;67933;51.060;3.638;2023-03-03T16:49:02;102743.75;;;6.37;66.18
78613;BME280;67933;51.060;3.638;2023-03-03T16:54:15;102757.78;;;6.40;66.58
78613;BME280;67933;51.060;3.638;2023-03-03T17:10:30;102777.13;;;6.41;67.10
78613;BME280;67933;51.060;3.638;2023-03-03T17:13:15;102782.38;;;6.42;67.04
78613;BME280;67933;51.060;3.638;2023-03-03T17:21:02;102789.44;;;6.37;66.69
78613;BME280;67933;51.060;3.638;2023-03-03T17:23:55;102785.94;;;6.35;66.59
78613;BME280;67933;51.060;3.638;2023-03-03T17:26:50;102791.25;;;6.32;66.76
78613;BME280;67933;51.060;3.638;2023-03-03T17:35:06;102807.13;;;6.26;65.60
78613;BME280;67933;51.060;3.638;2023-03-03T17:45:44;102796.66;;;6.14;66.30